This is the latest recevied weather packets stored in our database for station/object KW4UJ. If no packets are shown the sender has not sent any weather packets the latest 10 day(s).
| Time | Temp. | Humidity | Pressure | Rain* | Wind** | Luminosity | Snow |
|---|---|---|---|---|---|---|---|
| 1788138582 | 21.11° C | 97% | 1019.5 hPa | 0 mm | - | 0 W/m² | - |
| 1788138281 | 21.11° C | 97% | 1019.5 hPa | 0 mm | - | 0 W/m² | - |
| 1788137977 | 21.11° C | 97% | 1019.3 hPa | 0 mm | - | 0 W/m² | - |
| 1788137672 | 21.11° C | 97% | 1019.2 hPa | 0 mm | - | 0 W/m² | - |
| 1788137372 | 21.11° C | 97% | 1019.2 hPa | 0 mm | - | 0 W/m² | - |
| 1788137069 | 21.11° C | 97% | 1019.1 hPa | 0 mm | - | 0 W/m² | - |
| 1788136764 | 21.11° C | 97% | 1019.2 hPa | 0 mm | - | 0 W/m² | - |
| 1788136460 | 20.56° C | 96% | 1019.1 hPa | 0 mm | - | 0 W/m² | - |
| 1788136160 | 20.56° C | 96% | 1019.3 hPa | 0 mm | - | 0 W/m² | - |
| 1788135859 | 21.11° C | 96% | 1019.2 hPa | 0 mm | - | 0 W/m² | - |
| 1788135554 | 21.11° C | 96% | 1019.4 hPa | 0 mm | - | 0 W/m² | - |
| 1788135249 | 21.11° C | 95% | 1019.4 hPa | 1.27 mm | - | 0 W/m² | - |
| 1788134947 | 21.11° C | 95% | 1019.3 hPa | 6.1 mm | - | 0 W/m² | - |
| 1788134642 | 21.11° C | 95% | 1019.8 hPa | 10.67 mm | - | 0 W/m² | - |
| 1788134340 | 21.67° C | 95% | 1020 hPa | 27.69 mm | - | 0 W/m² | - |
| 1788134035 | 22.22° C | 94% | 1020.2 hPa | 29.97 mm | - | 0 W/m² | - |
| 1788133730 | 22.78° C | 92% | 1020.3 hPa | 10.16 mm | - | 0 W/m² | - |
| 1788133426 | 23.89° C | 86% | 1020.4 hPa | 0 mm | - | 0 W/m² | - |
| 1788133122 | 25° C | 82% | 1020 hPa | 0 mm | - | 0 W/m² | - |
| 1788132817 | 25.56° C | 82% | 1019.7 hPa | 0 mm | - | 1 W/m² | - |
| 1788132512 | 25.56° C | 83% | 1019 hPa | 0 mm | - | 2 W/m² | - |
| 1788132208 | 25.56° C | 83% | 1019 hPa | 0 mm | - | 3 W/m² | - |
| 1788131904 | 26.11° C | 82% | 1019 hPa | 0 mm | - | 3 W/m² | - |
| 1788131599 | 26.11° C | 82% | 1018.9 hPa | 0 mm | - | 4 W/m² | - |
| 1788131299 | 26.11° C | 81% | 1018.8 hPa | 0 mm | - | 5 W/m² | - |
* Rain latest hour (hover to see other rain measurements)
** Current wind speed in m/s (hover to see current wind gust speed)